sensor_id;sensor_type;location;lat;lon;timestamp;pressure;altitude;pressure_sealevel;temperature;humidity
11345;BME280;5727;42.600;23.028;2023-04-16T00:01:08;93172.50;;;8.89;89.09
11345;BME280;5727;42.600;23.028;2023-04-16T00:03:35;93165.09;;;8.91;89.31
11345;BME280;5727;42.600;23.028;2023-04-16T00:06:01;93159.13;;;8.91;89.36
11345;BME280;5727;42.600;23.028;2023-04-16T00:08:28;93170.00;;;8.81;89.16
11345;BME280;5727;42.600;23.028;2023-04-16T00:10:55;93164.88;;;8.84;89.82
11345;BME280;5727;42.600;23.028;2023-04-16T00:13:22;93172.06;;;8.87;89.82
11345;BME280;5727;42.600;23.028;2023-04-16T00:15:51;93163.13;;;8.88;89.00
11345;BME280;5727;42.600;23.028;2023-04-16T00:18:18;93163.56;;;8.90;89.38
11345;BME280;5727;42.600;23.028;2023-04-16T00:20:46;93166.97;;;8.91;89.36
11345;BME280;5727;42.600;23.028;2023-04-16T00:23:13;93169.47;;;8.87;89.62
11345;BME280;5727;42.600;23.028;2023-04-16T00:25:40;93162.06;;;8.89;88.50
11345;BME280;5727;42.600;23.028;2023-04-16T00:28:07;93169.22;;;8.92;88.27
11345;BME280;5727;42.600;23.028;2023-04-16T00:30:34;93164.44;;;8.94;89.42
11345;BME280;5727;42.600;23.028;2023-04-16T00:33:02;93164.78;;;8.93;90.21
11345;BME280;5727;42.600;23.028;2023-04-16T00:35:29;93167.50;;;8.96;90.18
11345;BME280;5727;42.600;23.028;2023-04-16T00:37:55;93168.56;;;8.95;90.18
11345;BME280;5727;42.600;23.028;2023-04-16T00:40:23;93160.72;;;8.95;89.86
11345;BME280;5727;42.600;23.028;2023-04-16T00:42:52;93157.91;;;9.00;89.87
11345;BME280;5727;42.600;23.028;2023-04-16T00:45:19;93155.31;;;9.00;89.60
11345;BME280;5727;42.600;23.028;2023-04-16T00:47:45;93153.22;;;9.06;89.68
11345;BME280;5727;42.600;23.028;2023-04-16T00:50:13;93151.25;;;9.03;90.39
11345;BME280;5727;42.600;23.028;2023-04-16T00:52:42;93155.75;;;9.02;91.01
11345;BME280;5727;42.600;23.028;2023-04-16T00:55:09;93152.78;;;9.04;91.31
11345;BME280;5727;42.600;23.028;2023-04-16T00:57:37;93155.06;;;9.05;91.67
11345;BME280;5727;42.600;23.028;2023-04-16T01:00:05;93147.91;;;9.02;91.87
11345;BME280;5727;42.600;23.028;2023-04-16T01:02:33;93137.13;;;9.04;92.50
11345;BME280;5727;42.600;23.028;2023-04-16T01:05:00;93137.44;;;9.02;93.09
11345;BME280;5727;42.600;23.028;2023-04-16T01:07:28;93135.56;;;9.03;92.83
11345;BME280;5727;42.600;23.028;2023-04-16T01:09:55;93138.53;;;9.01;93.29
11345;BME280;5727;42.600;23.028;2023-04-16T01:12:22;93131.03;;;9.00;93.46
11345;BME280;5727;42.600;23.028;2023-04-16T01:14:49;93131.78;;;9.00;93.33
11345;BME280;5727;42.600;23.028;2023-04-16T01:17:15;93130.91;;;8.96;93.07
11345;BME280;5727;42.600;23.028;2023-04-16T01:19:42;93130.91;;;8.96;93.31
11345;BME280;5727;42.600;23.028;2023-04-16T01:22:10;93130.06;;;8.92;93.43
11345;BME280;5727;42.600;23.028;2023-04-16T01:24:37;93125.50;;;8.89;94.21
11345;BME280;5727;42.600;23.028;2023-04-16T01:27:04;93128.31;;;8.84;94.72
11345;BME280;5727;42.600;23.028;2023-04-16T01:29:31;93128.97;;;8.81;94.72
11345;BME280;5727;42.600;23.028;2023-04-16T01:31:58;93128.53;;;8.67;95.07
11345;BME280;5727;42.600;23.028;2023-04-16T01:34:24;93131.38;;;8.62;96.44
11345;BME280;5727;42.600;23.028;2023-04-16T01:36:51;93122.88;;;8.53;97.29
11345;BME280;5727;42.600;23.028;2023-04-16T01:39:19;93130.72;;;8.41;97.83
11345;BME280;5727;42.600;23.028;2023-04-16T01:41:46;93122.81;;;8.17;98.87
11345;BME280;5727;42.600;23.028;2023-04-16T01:44:13;93126.94;;;8.06;98.80
11345;BME280;5727;42.600;23.028;2023-04-16T01:46:40;93122.78;;;7.93;99.80
11345;BME280;5727;42.600;23.028;2023-04-16T01:49:06;93128.03;;;7.39;100.00
11345;BME280;5727;42.600;23.028;2023-04-16T01:51:33;93123.81;;;7.26;100.00
11345;BME280;5727;42.600;23.028;2023-04-16T01:54:00;93122.28;;;7.25;100.00
11345;BME280;5727;42.600;23.028;2023-04-16T01:56:28;93123.75;;;7.14;100.00
11345;BME280;5727;42.600;23.028;2023-04-16T01:58:54;93129.25;;;6.92;100.00
11345;BME280;5727;42.600;23.028;2023-04-16T02:01:21;93123.34;;;6.83;100.00
11345;BME280;5727;42.600;23.028;2023-04-16T02:03:50;93126.78;;;6.96;100.00
11345;BME280;5727;42.600;23.028;2023-04-16T02:06:17;93116.81;;;6.98;100.00
11345;BME280;5727;42.600;23.028;2023-04-16T02:08:43;93126.00;;;6.75;100.00
11345;BME280;5727;42.600;23.028;2023-04-16T02:11:10;93122.13;;;6.81;100.00
11345;BME280;5727;42.600;23.028;2023-04-16T02:13:38;93117.34;;;6.91;100.00
11345;BME280;5727;42.600;23.028;2023-04-16T02:16:05;93122.31;;;7.05;100.00
11345;BME280;5727;42.600;23.028;2023-04-16T02:18:32;93117.47;;;7.15;100.00
11345;BME280;5727;42.600;23.028;2023-04-16T02:20:58;93114.03;;;7.23;100.00
11345;BME280;5727;42.600;23.028;2023-04-16T02:23:25;93116.63;;;7.23;100.00
11345;BME280;5727;42.600;23.028;2023-04-16T02:25:52;93115.81;;;7.31;100.00
11345;BME280;5727;42.600;23.028;2023-04-16T02:28:19;93114.53;;;7.37;100.00
11345;BME280;5727;42.600;23.028;2023-04-16T02:30:47;93113.91;;;7.40;100.00
11345;BME280;5727;42.600;23.028;2023-04-16T02:33:13;93110.06;;;7.38;100.00
11345;BME280;5727;42.600;23.028;2023-04-16T02:35:40;93111.66;;;7.30;100.00
11345;BME280;5727;42.600;23.028;2023-04-16T02:38:07;93109.78;;;7.39;100.00
11345;BME280;5727;42.600;23.028;2023-04-16T02:40:34;93114.13;;;7.48;100.00
11345;BME280;5727;42.600;23.028;2023-04-16T02:43:01;93101.38;;;7.55;100.00
11345;BME280;5727;42.600;23.028;2023-04-16T02:45:28;93101.03;;;7.56;100.00
11345;BME280;5727;42.600;23.028;2023-04-16T02:47:57;93107.97;;;7.52;100.00
11345;BME280;5727;42.600;23.028;2023-04-16T02:50:24;93099.78;;;7.41;100.00
11345;BME280;5727;42.600;23.028;2023-04-16T02:52:50;93102.97;;;7.47;100.00
11345;BME280;5727;42.600;23.028;2023-04-16T02:55:17;93111.47;;;7.56;100.00
11345;BME280;5727;42.600;23.028;2023-04-16T02:57:44;93113.53;;;7.63;100.00
11345;BME280;5727;42.600;23.028;2023-04-16T03:00:11;93117.91;;;7.71;100.00
11345;BME280;5727;42.600;23.028;2023-04-16T03:02:38;93106.84;;;7.74;100.00
11345;BME280;5727;42.600;23.028;2023-04-16T03:05:07;93118.28;;;7.81;100.00
11345;BME280;5727;42.600;23.028;2023-04-16T03:07:34;93131.44;;;7.85;100.00
11345;BME280;5727;42.600;23.028;2023-04-16T03:10:01;93120.34;;;7.88;100.00
11345;BME280;5727;42.600;23.028;2023-04-16T03:12:27;93123.72;;;7.88;100.00
11345;BME280;5727;42.600;23.028;2023-04-16T03:14:54;93124.50;;;7.89;100.00
11345;BME280;5727;42.600;23.028;2023-04-16T03:17:21;93128.00;;;7.93;100.00
11345;BME280;5727;42.600;23.028;2023-04-16T03:19:47;93120.59;;;7.95;100.00
11345;BME280;5727;42.600;23.028;2023-04-16T03:22:16;93116.56;;;7.97;100.00
11345;BME280;5727;42.600;23.028;2023-04-16T03:24:43;93118.22;;;8.02;100.00
11345;BME280;5727;42.600;23.028;2023-04-16T03:27:10;93124.00;;;8.07;100.00
11345;BME280;5727;42.600;23.028;2023-04-16T03:29:36;93125.63;;;8.12;100.00
11345;BME280;5727;42.600;23.028;2023-04-16T03:32:03;93119.31;;;8.13;100.00
11345;BME280;5727;42.600;23.028;2023-04-16T03:34:30;93132.38;;;8.13;99.54
11345;BME280;5727;42.600;23.028;2023-04-16T03:36:57;93123.91;;;8.16;99.05
11345;BME280;5727;42.600;23.028;2023-04-16T03:39:25;93136.50;;;8.14;98.31
11345;BME280;5727;42.600;23.028;2023-04-16T03:41:52;93132.69;;;8.11;97.40
11345;BME280;5727;42.600;23.028;2023-04-16T03:44:19;93131.94;;;8.11;97.49
11345;BME280;5727;42.600;23.028;2023-04-16T03:46:46;93133.78;;;8.10;97.75
11345;BME280;5727;42.600;23.028;2023-04-16T03:49:12;93136.69;;;8.09;98.73
11345;BME280;5727;42.600;23.028;2023-04-16T03:51:39;93135.53;;;8.06;98.59
11345;BME280;5727;42.600;23.028;2023-04-16T03:54:06;93136.91;;;8.04;98.74
11345;BME280;5727;42.600;23.028;2023-04-16T03:56:34;93133.22;;;8.05;98.89
11345;BME280;5727;42.600;23.028;2023-04-16T03:59:00;93133.88;;;8.02;99.79
11345;BME280;5727;42.600;23.028;2023-04-16T04:01:27;93136.16;;;8.03;99.81
11345;BME280;5727;42.600;23.028;2023-04-16T04:03:54;93129.09;;;8.04;100.00
11345;BME280;5727;42.600;23.028;2023-04-16T04:06:20;93135.53;;;8.06;99.91
11345;BME280;5727;42.600;23.028;2023-04-16T04:08:47;93130.31;;;8.06;100.00
11345;BME280;5727;42.600;23.028;2023-04-16T04:11:14;93128.44;;;8.07;100.00
11345;BME280;5727;42.600;23.028;2023-04-16T04:13:42;93139.75;;;8.11;100.00
11345;BME280;5727;42.600;23.028;2023-04-16T04:16:08;93137.28;;;8.14;99.92
11345;BME280;5727;42.600;23.028;2023-04-16T04:18:35;93139.56;;;8.16;99.85
11345;BME280;5727;42.600;23.028;2023-04-16T04:21:04;93143.50;;;8.22;99.97
11345;BME280;5727;42.600;23.028;2023-04-16T04:23:31;93142.41;;;8.23;99.99
11345;BME280;5727;42.600;23.028;2023-04-16T04:25:58;93147.06;;;8.17;100.00
11345;BME280;5727;42.600;23.028;2023-04-16T04:28:28;93154.38;;;8.24;100.00
11345;BME280;5727;42.600;23.028;2023-04-16T04:30:56;93152.00;;;8.31;100.00
11345;BME280;5727;42.600;23.028;2023-04-16T04:33:23;93148.31;;;8.32;100.00
11345;BME280;5727;42.600;23.028;2023-04-16T04:35:49;93150.72;;;8.37;99.50
11345;BME280;5727;42.600;23.028;2023-04-16T04:38:16;93156.81;;;8.41;99.71
11345;BME280;5727;42.600;23.028;2023-04-16T04:40:44;93152.25;;;8.50;98.47
11345;BME280;5727;42.600;23.028;2023-04-16T04:43:12;93153.13;;;8.54;98.61
11345;BME280;5727;42.600;23.028;2023-04-16T04:45:39;93161.16;;;8.61;98.02
11345;BME280;5727;42.600;23.028;2023-04-16T04:48:07;93157.16;;;8.64;97.90
11345;BME280;5727;42.600;23.028;2023-04-16T04:50:34;93155.09;;;8.69;98.03
11345;BME280;5727;42.600;23.028;2023-04-16T04:53:01;93157.91;;;8.76;97.21
11345;BME280;5727;42.600;23.028;2023-04-16T04:55:31;93159.66;;;8.84;97.49
11345;BME280;5727;42.600;23.028;2023-04-16T04:57:58;93150.06;;;8.88;96.97
11345;BME280;5727;42.600;23.028;2023-04-16T05:00:25;93150.63;;;8.94;96.35
11345;BME280;5727;42.600;23.028;2023-04-16T05:02:51;93152.59;;;8.97;95.96
11345;BME280;5727;42.600;23.028;2023-04-16T05:05:20;93151.28;;;8.91;97.41
11345;BME280;5727;42.600;23.028;2023-04-16T05:07:46;93154.88;;;8.98;96.47
11345;BME280;5727;42.600;23.028;2023-04-16T05:10:13;93158.00;;;9.04;96.43
11345;BME280;5727;42.600;23.028;2023-04-16T05:12:40;93152.25;;;9.10;95.98
11345;BME280;5727;42.600;23.028;2023-04-16T05:15:08;93153.31;;;9.21;95.56
11345;BME280;5727;42.600;23.028;2023-04-16T05:17:34;93154.72;;;9.31;95.09
11345;BME280;5727;42.600;23.028;2023-04-16T05:20:01;93156.09;;;9.41;94.00
11345;BME280;5727;42.600;23.028;2023-04-16T05:22:29;93146.94;;;9.47;94.05
11345;BME280;5727;42.600;23.028;2023-04-16T05:24:56;93153.47;;;9.53;94.39
11345;BME280;5727;42.600;23.028;2023-04-16T05:27:22;93153.75;;;9.63;93.84
11345;BME280;5727;42.600;23.028;2023-04-16T05:29:49;93150.22;;;9.71;93.33
11345;BME280;5727;42.600;23.028;2023-04-16T05:32:16;93147.03;;;9.78;93.18
11345;BME280;5727;42.600;23.028;2023-04-16T05:34:43;93149.19;;;9.88;91.60
11345;BME280;5727;42.600;23.028;2023-04-16T05:37:09;93146.22;;;9.89;92.25
11345;BME280;5727;42.600;23.028;2023-04-16T05:39:37;93150.72;;;9.89;91.27
11345;BME280;5727;42.600;23.028;2023-04-16T05:42:04;93149.19;;;9.88;90.69
11345;BME280;5727;42.600;23.028;2023-04-16T05:44:31;93154.28;;;9.96;89.17
11345;BME280;5727;42.600;23.028;2023-04-16T05:46:57;93148.03;;;10.01;89.73
11345;BME280;5727;42.600;23.028;2023-04-16T05:49:24;93150.94;;;9.84;90.11
11345;BME280;5727;42.600;23.028;2023-04-16T05:51:51;93156.38;;;9.51;92.47
11345;BME280;5727;42.600;23.028;2023-04-16T05:54:17;93153.25;;;9.46;93.10
11345;BME280;5727;42.600;23.028;2023-04-16T05:56:45;93149.06;;;9.57;92.97
11345;BME280;5727;42.600;23.028;2023-04-16T05:59:12;93150.88;;;9.41;94.06
11345;BME280;5727;42.600;23.028;2023-04-16T06:01:39;93151.84;;;9.36;94.67
11345;BME280;5727;42.600;23.028;2023-04-16T06:04:06;93151.84;;;9.48;94.07
11345;BME280;5727;42.600;23.028;2023-04-16T06:06:33;93149.13;;;9.45;94.55
11345;BME280;5727;42.600;23.028;2023-04-16T06:09:01;93146.78;;;9.55;93.82
11345;BME280;5727;42.600;23.028;2023-04-16T06:11:28;93146.84;;;9.43;94.49
11345;BME280;5727;42.600;23.028;2023-04-16T06:13:57;93146.03;;;9.55;94.13
11345;BME280;5727;42.600;23.028;2023-04-16T06:16:24;93151.03;;;9.60;93.78
11345;BME280;5727;42.600;23.028;2023-04-16T06:18:50;93138.19;;;9.82;92.72
11345;BME280;5727;42.600;23.028;2023-04-16T06:21:17;93142.47;;;10.02;91.92
11345;BME280;5727;42.600;23.028;2023-04-16T06:23:44;93132.22;;;10.25;89.58
11345;BME280;5727;42.600;23.028;2023-04-16T06:26:11;93135.59;;;10.41;88.21
11345;BME280;5727;42.600;23.028;2023-04-16T06:28:38;93137.31;;;10.65;87.19
11345;BME280;5727;42.600;23.028;2023-04-16T06:31:06;93131.72;;;10.82;85.40
11345;BME280;5727;42.600;23.028;2023-04-16T06:33:32;93131.94;;;11.08;83.60
11345;BME280;5727;42.600;23.028;2023-04-16T06:35:59;93128.53;;;11.23;81.60
11345;BME280;5727;42.600;23.028;2023-04-16T06:38:26;93127.22;;;11.33;78.22
11345;BME280;5727;42.600;23.028;2023-04-16T06:40:53;93124.47;;;11.45;76.62
11345;BME280;5727;42.600;23.028;2023-04-16T06:43:19;93125.88;;;11.58;76.00
11345;BME280;5727;42.600;23.028;2023-04-16T06:45:46;93129.97;;;11.74;75.06
11345;BME280;5727;42.600;23.028;2023-04-16T06:48:14;93132.94;;;11.73;74.81
11345;BME280;5727;42.600;23.028;2023-04-16T06:50:41;93133.44;;;11.63;75.33
11345;BME280;5727;42.600;23.028;2023-04-16T06:53:08;93126.44;;;11.67;75.90
11345;BME280;5727;42.600;23.028;2023-04-16T06:55:34;93132.13;;;11.53;77.35
11345;BME280;5727;42.600;23.028;2023-04-16T06:58:01;93129.91;;;11.36;78.89
11345;BME280;5727;42.600;23.028;2023-04-16T07:00:28;93128.91;;;11.41;79.42
11345;BME280;5727;42.600;23.028;2023-04-16T07:02:54;93128.34;;;11.51;78.05
11345;BME280;5727;42.600;23.028;2023-04-16T07:05:22;93122.66;;;11.30;80.11
11345;BME280;5727;42.600;23.028;2023-04-16T07:07:49;93129.13;;;11.17;81.87
11345;BME280;5727;42.600;23.028;2023-04-16T07:10:16;93124.03;;;10.89;84.52
11345;BME280;5727;42.600;23.028;2023-04-16T07:12:43;93119.53;;;10.89;85.34
11345;BME280;5727;42.600;23.028;2023-04-16T07:15:10;93120.72;;;11.27;84.14
11345;BME280;5727;42.600;23.028;2023-04-16T07:17:36;93121.66;;;11.19;84.41
11345;BME280;5727;42.600;23.028;2023-04-16T07:20:04;93121.59;;;11.15;84.51
11345;BME280;5727;42.600;23.028;2023-04-16T07:22:33;93121.28;;;11.36;84.40
11345;BME280;5727;42.600;23.028;2023-04-16T07:25:03;93130.81;;;11.63;83.26
11345;BME280;5727;42.600;23.028;2023-04-16T07:27:30;93113.59;;;12.00;81.16
11345;BME280;5727;42.600;23.028;2023-04-16T07:29:56;93120.25;;;12.17;79.82
11345;BME280;5727;42.600;23.028;2023-04-16T07:32:23;93115.41;;;12.41;78.95
11345;BME280;5727;42.600;23.028;2023-04-16T07:34:50;93112.13;;;12.70;76.78
11345;BME280;5727;42.600;23.028;2023-04-16T07:37:17;93117.13;;;12.75;75.76
11345;BME280;5727;42.600;23.028;2023-04-16T07:39:45;93119.25;;;12.93;76.17
11345;BME280;5727;42.600;23.028;2023-04-16T07:42:12;93116.88;;;13.36;75.26
11345;BME280;5727;42.600;23.028;2023-04-16T07:44:39;93110.94;;;13.72;72.16
11345;BME280;5727;42.600;23.028;2023-04-16T07:47:06;93112.59;;;13.88;71.05
11345;BME280;5727;42.600;23.028;2023-04-16T07:49:33;93112.97;;;13.86;69.62
11345;BME280;5727;42.600;23.028;2023-04-16T07:51:59;93115.97;;;13.55;70.17
11345;BME280;5727;42.600;23.028;2023-04-16T07:54:26;93113.63;;;13.46;68.47
11345;BME280;5727;42.600;23.028;2023-04-16T07:56:54;93104.25;;;13.49;70.88
11345;BME280;5727;42.600;23.028;2023-04-16T07:59:21;93111.69;;;13.43;69.27
11345;BME280;5727;42.600;23.028;2023-04-16T08:01:48;93105.78;;;13.50;68.84
11345;BME280;5727;42.600;23.028;2023-04-16T08:04:15;93109.31;;;13.64;68.86
11345;BME280;5727;42.600;23.028;2023-04-16T08:06:47;93105.94;;;13.64;67.74
11345;BME280;5727;42.600;23.028;2023-04-16T08:09:13;93105.06;;;13.86;67.43
11345;BME280;5727;42.600;23.028;2023-04-16T08:11:40;93104.28;;;13.82;66.23
11345;BME280;5727;42.600;23.028;2023-04-16T08:14:08;93102.84;;;13.88;63.50
11345;BME280;5727;42.600;23.028;2023-04-16T08:16:35;93101.66;;;14.19;63.18
11345;BME280;5727;42.600;23.028;2023-04-16T08:19:03;93099.41;;;14.21;61.42
11345;BME280;5727;42.600;23.028;2023-04-16T08:21:29;93097.41;;;14.07;60.58
11345;BME280;5727;42.600;23.028;2023-04-16T08:23:56;93089.34;;;14.30;61.78
11345;BME280;5727;42.600;23.028;2023-04-16T08:26:23;93093.41;;;14.24;60.41
11345;BME280;5727;42.600;23.028;2023-04-16T08:28:50;93087.88;;;14.32;61.02
11345;BME280;5727;42.600;23.028;2023-04-16T08:31:18;93090.56;;;14.39;60.05
11345;BME280;5727;42.600;23.028;2023-04-16T08:33:45;93089.91;;;14.49;58.37
11345;BME280;5727;42.600;23.028;2023-04-16T08:36:12;93080.97;;;14.61;58.89
11345;BME280;5727;42.600;23.028;2023-04-16T08:38:38;93083.41;;;14.84;57.47
11345;BME280;5727;42.600;23.028;2023-04-16T08:41:08;93081.09;;;14.75;54.83
11345;BME280;5727;42.600;23.028;2023-04-16T08:43:38;93071.44;;;14.97;54.79
11345;BME280;5727;42.600;23.028;2023-04-16T08:46:08;93076.13;;;15.28;54.45
11345;BME280;5727;42.600;23.028;2023-04-16T08:48:37;93070.53;;;15.36;53.12
11345;BME280;5727;42.600;23.028;2023-04-16T08:51:09;93069.97;;;15.71;51.82
11345;BME280;5727;42.600;23.028;2023-04-16T08:53:42;93065.53;;;16.07;50.10
11345;BME280;5727;42.600;23.028;2023-04-16T08:56:14;93076.16;;;16.31;49.40
11345;BME280;5727;42.600;23.028;2023-04-16T08:58:45;93075.00;;;16.18;47.61
11345;BME280;5727;42.600;23.028;2023-04-16T09:01:13;93079.94;;;16.37;47.61
11345;BME280;5727;42.600;23.028;2023-04-16T09:03:41;93070.53;;;16.68;47.05
11345;BME280;5727;42.600;23.028;2023-04-16T09:06:10;93074.69;;;16.76;45.65
11345;BME280;5727;42.600;23.028;2023-04-16T09:08:36;93073.56;;;16.60;44.63
11345;BME280;5727;42.600;23.028;2023-04-16T09:11:04;93059.94;;;16.54;44.48
11345;BME280;5727;42.600;23.028;2023-04-16T09:13:31;93056.91;;;16.34;45.29
11345;BME280;5727;42.600;23.028;2023-04-16T09:15:58;93059.16;;;16.46;47.11
11345;BME280;5727;42.600;23.028;2023-04-16T09:18:25;93058.06;;;16.51;49.22
11345;BME280;5727;42.600;23.028;2023-04-16T09:20:54;93059.97;;;16.58;46.77
11345;BME280;5727;42.600;23.028;2023-04-16T09:23:22;93061.09;;;16.71;45.69
11345;BME280;5727;42.600;23.028;2023-04-16T09:25:49;93053.94;;;16.71;46.77
11345;BME280;5727;42.600;23.028;2023-04-16T09:31:16;93053.84;;;17.24;42.53
11345;BME280;5727;42.600;23.028;2023-04-16T09:33:59;93052.69;;;17.21;42.52
11345;BME280;5727;42.600;23.028;2023-04-16T09:36:28;93059.56;;;16.98;42.66
11345;BME280;5727;42.600;23.028;2023-04-16T09:38:55;93058.44;;;16.85;42.79
11345;BME280;5727;42.600;23.028;2023-04-16T09:41:24;93053.91;;;16.75;43.22
11345;BME280;5727;42.600;23.028;2023-04-16T09:43:56;93055.41;;;17.04;42.96
11345;BME280;5727;42.600;23.028;2023-04-16T09:46:23;93052.78;;;16.86;42.68
11345;BME280;5727;42.600;23.028;2023-04-16T09:48:50;93044.03;;;17.07;43.10
11345;BME280;5727;42.600;23.028;2023-04-16T09:51:17;93047.75;;;17.37;42.55
11345;BME280;5727;42.600;23.028;2023-04-16T09:53:45;93046.25;;;17.36;40.76
11345;BME280;5727;42.600;23.028;2023-04-16T09:56:12;93047.78;;;17.30;41.33
11345;BME280;5727;42.600;23.028;2023-04-16T09:58:39;93046.59;;;17.53;41.47
11345;BME280;5727;42.600;23.028;2023-04-16T10:01:08;93044.69;;;17.57;41.25
11345;BME280;5727;42.600;23.028;2023-04-16T10:03:36;93046.44;;;17.91;41.18
11345;BME280;5727;42.600;23.028;2023-04-16T10:06:07;93046.13;;;17.75;41.04
11345;BME280;5727;42.600;23.028;2023-04-16T10:08:35;93035.41;;;18.00;40.77
11345;BME280;5727;42.600;23.028;2023-04-16T10:11:03;93040.38;;;17.87;40.14
11345;BME280;5727;42.600;23.028;2023-04-16T10:13:31;93030.19;;;17.86;40.07
11345;BME280;5727;42.600;23.028;2023-04-16T10:15:57;93035.22;;;18.28;39.73
11345;BME280;5727;42.600;23.028;2023-04-16T10:18:25;93033.94;;;17.92;39.86
11345;BME280;5727;42.600;23.028;2023-04-16T10:20:52;93021.84;;;17.87;39.58
11345;BME280;5727;42.600;23.028;2023-04-16T10:23:20;93023.38;;;17.81;39.83
11345;BME280;5727;42.600;23.028;2023-04-16T10:25:47;93017.25;;;17.95;39.35
11345;BME280;5727;42.600;23.028;2023-04-16T10:28:16;93013.03;;;18.04;39.06
11345;BME280;5727;42.600;23.028;2023-04-16T10:30:44;93011.19;;;17.98;39.23
11345;BME280;5727;42.600;23.028;2023-04-16T10:33:19;93004.13;;;18.36;39.01
11345;BME280;5727;42.600;23.028;2023-04-16T10:35:46;93005.31;;;18.75;38.10
11345;BME280;5727;42.600;23.028;2023-04-16T10:38:23;93005.22;;;18.89;37.85
11345;BME280;5727;42.600;23.028;2023-04-16T10:40:57;93000.31;;;18.88;37.76
11345;BME280;5727;42.600;23.028;2023-04-16T10:43:27;93004.31;;;18.62;37.93
11345;BME280;5727;42.600;23.028;2023-04-16T10:45:54;93015.19;;;18.23;38.05
11345;BME280;5727;42.600;23.028;2023-04-16T10:48:23;93007.47;;;17.81;39.20
11345;BME280;5727;42.600;23.028;2023-04-16T10:50:54;93006.00;;;17.77;39.45
11345;BME280;5727;42.600;23.028;2023-04-16T10:53:25;93001.91;;;17.58;40.85
11345;BME280;5727;42.600;23.028;2023-04-16T10:55:56;93009.09;;;17.65;39.97
11345;BME280;5727;42.600;23.028;2023-04-16T10:58:28;93010.59;;;17.66;39.12
11345;BME280;5727;42.600;23.028;2023-04-16T11:00:58;93009.13;;;17.61;39.38
11345;BME280;5727;42.600;23.028;2023-04-16T11:03:24;93002.28;;;17.60;39.60
11345;BME280;5727;42.600;23.028;2023-04-16T11:05:51;92994.69;;;17.69;39.54
11345;BME280;5727;42.600;23.028;2023-04-16T11:08:19;92983.06;;;18.14;40.39
11345;BME280;5727;42.600;23.028;2023-04-16T11:10:46;92981.25;;;18.56;38.55
11345;BME280;5727;42.600;23.028;2023-04-16T11:13:14;92978.91;;;18.65;37.65
11345;BME280;5727;42.600;23.028;2023-04-16T11:15:43;92980.31;;;18.25;37.68
11345;BME280;5727;42.600;23.028;2023-04-16T11:18:10;92981.31;;;17.94;38.45
11345;BME280;5727;42.600;23.028;2023-04-16T11:20:40;92976.50;;;18.29;38.18
11345;BME280;5727;42.600;23.028;2023-04-16T11:23:09;92970.03;;;18.34;37.98
11345;BME280;5727;42.600;23.028;2023-04-16T11:25:37;92971.34;;;18.60;37.43
11345;BME280;5727;42.600;23.028;2023-04-16T11:28:04;92976.00;;;18.49;37.89
11345;BME280;5727;42.600;23.028;2023-04-16T11:30:32;92966.78;;;18.64;36.86
11345;BME280;5727;42.600;23.028;2023-04-16T11:33:02;92960.41;;;18.95;36.76
11345;BME280;5727;42.600;23.028;2023-04-16T11:35:29;92959.19;;;19.40;36.12
11345;BME280;5727;42.600;23.028;2023-04-16T11:37:57;92953.47;;;19.42;35.74
11345;BME280;5727;42.600;23.028;2023-04-16T11:40:24;92955.81;;;19.66;35.43
11345;BME280;5727;42.600;23.028;2023-04-16T11:42:54;92950.50;;;19.66;37.10
11345;BME280;5727;42.600;23.028;2023-04-16T11:45:21;92946.72;;;19.90;38.08
11345;BME280;5727;42.600;23.028;2023-04-16T11:47:48;92941.81;;;19.62;35.89
11345;BME280;5727;42.600;23.028;2023-04-16T11:50:21;92939.91;;;19.29;36.13
11345;BME280;5727;42.600;23.028;2023-04-16T11:52:49;92934.06;;;19.45;37.19
11345;BME280;5727;42.600;23.028;2023-04-16T11:55:16;92936.44;;;19.66;37.38
11345;BME280;5727;42.600;23.028;2023-04-16T11:57:43;92935.25;;;19.70;36.04
11345;BME280;5727;42.600;23.028;2023-04-16T12:00:11;92940.81;;;19.79;36.79
11345;BME280;5727;42.600;23.028;2023-04-16T12:02:39;92933.91;;;19.85;36.73
11345;BME280;5727;42.600;23.028;2023-04-16T12:07:52;92928.09;;;19.37;36.31
11345;BME280;5727;42.600;23.028;2023-04-16T12:10:19;92932.81;;;19.23;36.53
11345;BME280;5727;42.600;23.028;2023-04-16T12:12:46;92925.47;;;19.34;36.73
11345;BME280;5727;42.600;23.028;2023-04-16T12:15:12;92929.66;;;19.31;37.32
11345;BME280;5727;42.600;23.028;2023-04-16T12:17:39;92930.53;;;19.21;39.49
11345;BME280;5727;42.600;23.028;2023-04-16T12:20:08;92922.84;;;19.30;39.81
11345;BME280;5727;42.600;23.028;2023-04-16T12:22:37;92927.53;;;19.19;40.78
11345;BME280;5727;42.600;23.028;2023-04-16T12:25:07;92916.91;;;19.19;40.95
11345;BME280;5727;42.600;23.028;2023-04-16T12:27:44;92916.25;;;19.08;41.19
11345;BME280;5727;42.600;23.028;2023-04-16T12:30:12;92916.97;;;19.12;41.30
11345;BME280;5727;42.600;23.028;2023-04-16T12:32:40;92910.44;;;19.20;41.29
11345;BME280;5727;42.600;23.028;2023-04-16T12:35:07;92912.97;;;19.34;40.08
11345;BME280;5727;42.600;23.028;2023-04-16T12:37:34;92914.28;;;19.49;40.44
11345;BME280;5727;42.600;23.028;2023-04-16T12:40:01;92914.34;;;19.46;39.66
11345;BME280;5727;42.600;23.028;2023-04-16T12:42:30;92906.50;;;19.62;38.79
11345;BME280;5727;42.600;23.028;2023-04-16T12:45:00;92912.63;;;19.85;37.02
11345;BME280;5727;42.600;23.028;2023-04-16T12:47:28;92910.63;;;19.66;36.35
11345;BME280;5727;42.600;23.028;2023-04-16T12:49:55;92921.38;;;19.26;36.62
11345;BME280;5727;42.600;23.028;2023-04-16T12:52:22;92912.00;;;18.84;37.53
11345;BME280;5727;42.600;23.028;2023-04-16T12:54:49;92916.03;;;18.58;38.30
11345;BME280;5727;42.600;23.028;2023-04-16T12:57:15;92917.94;;;18.58;38.77
11345;BME280;5727;42.600;23.028;2023-04-16T12:59:43;92911.91;;;18.57;38.57
11345;BME280;5727;42.600;23.028;2023-04-16T13:02:11;92934.94;;;18.64;38.90
11345;BME280;5727;42.600;23.028;2023-04-16T13:04:38;92951.09;;;18.36;45.93
11345;BME280;5727;42.600;23.028;2023-04-16T13:07:04;92939.25;;;17.99;51.36
11345;BME280;5727;42.600;23.028;2023-04-16T13:09:31;92945.50;;;17.68;54.33